Weather Data

Pearl Creek Farm: 8878 N Farm Road 75, Walnut Grove MO 65770

<== Previous Day (Tuesday 05 Apr 2016) | Next Day (Thursday 07 Apr 2016) ==>

Summary Precipitation Data For Wednesday 06 April 2016

ElementValueUnits
Precipitation0"
NotesAny precipitation for this day was included with a multiple-day report on 07 April 2016.
SourcePearl Creek Farm

Summary Temperature Data For Wednesday 06 April 2016

ElementValueUnits
High Temperature63 oF
Low Temperature46 oF
Average Temperature56 oF
High Humidity86 %
Low Humidity34 %
Average Humidity57 %
SourceSpringfield-Branson National Airport (SGF)

Detail Temperature Data For Wednesday 06 April 2016

Date / TimeTemp (F)RH (%)Dew Pt (F)Report Date / TimeSource
2016-04-06 07:52:00 52 86 48.0 2017-12-29 17:00:26.17417 Springfield-Branson National Airport (SGF)
2016-04-06 08:52:00 51 86 47.0 2017-12-29 17:00:26.17417 Springfield-Branson National Airport (SGF)
2016-04-06 09:52:00 51 86 47.0 2017-12-29 17:00:26.17417 Springfield-Branson National Airport (SGF)
2016-04-06 00:52:00 58 60 44.0 2017-12-29 17:00:26.17417 Springfield-Branson National Airport (SGF)
2016-04-06 01:52:00 56 67 45.0 2017-12-29 17:00:26.17417 Springfield-Branson National Airport (SGF)
2016-04-06 02:52:00 57 62 44.0 2017-12-29 17:00:26.17417 Springfield-Branson National Airport (SGF)
2016-04-06 03:52:00 56 67 45.0 2017-12-29 17:00:26.17417 Springfield-Branson National Airport (SGF)
2016-04-06 04:52:00 56 67 45.0 2017-12-29 17:00:26.17417 Springfield-Branson National Airport (SGF)
2016-04-06 05:52:00 58 65 46.0 2017-12-29 17:00:26.17417 Springfield-Branson National Airport (SGF)
2016-04-06 06:52:00 58 70 48.0 2017-12-29 17:00:26.17417 Springfield-Branson National Airport (SGF)
2016-04-06 10:52:00 53 74 45.0 2017-12-29 17:00:26.17417 Springfield-Branson National Airport (SGF)
2016-04-06 11:52:00 57 60 43.0 2017-12-29 17:00:26.17417 Springfield-Branson National Airport (SGF)
2016-04-06 12:52:00 58 48 38.0 2017-12-29 17:00:26.17417 Springfield-Branson National Airport (SGF)
2016-04-06 13:52:00 60 39 35.0 2017-12-29 17:00:26.17417 Springfield-Branson National Airport (SGF)
2016-04-06 14:52:00 62 35 34.0 2017-12-29 17:00:26.17417 Springfield-Branson National Airport (SGF)
2016-04-06 15:52:00 63 35 35.0 2017-12-29 17:00:26.17417 Springfield-Branson National Airport (SGF)
2016-04-06 16:52:00 63 34 34.0 2017-12-29 17:00:26.17417 Springfield-Branson National Airport (SGF)
2016-04-06 17:52:00 61 35 33.0 2017-12-29 17:00:26.17417 Springfield-Branson National Airport (SGF)
2016-04-06 18:52:00 57 42 34.0 2017-12-29 17:00:26.17417 Springfield-Branson National Airport (SGF)
2016-04-06 19:52:00 54 45 33.0 2017-12-29 17:00:26.17417 Springfield-Branson National Airport (SGF)
2016-04-06 20:52:00 53 48 34.0 2017-12-29 17:00:26.17417 Springfield-Branson National Airport (SGF)
2016-04-06 21:52:00 52 49 33.0 2017-12-29 17:00:26.17417 Springfield-Branson National Airport (SGF)
2016-04-06 22:52:00 52 49 33.0 2017-12-29 17:00:26.17417 Springfield-Branson National Airport (SGF)
2016-04-06 23:52:00 46 63 34.0 2017-12-29 17:00:26.17417 Springfield-Branson National Airport (SGF)

A total of 24 rows are displayed.